createdAt,value
2022-10-31T00:01:26.513Z,57.17
2022-10-31T00:03:54.733Z,57.38
2022-10-31T00:06:23.285Z,57.40
2022-10-31T00:09:01.812Z,57.23
2022-10-31T00:11:29.645Z,57.59
2022-10-31T00:13:58.533Z,57.05
2022-10-31T00:16:27.160Z,57.21
2022-10-31T00:19:00.383Z,57.09
2022-10-31T00:21:29.749Z,56.94
2022-10-31T00:24:03.190Z,56.36
2022-10-31T00:26:34.604Z,56.31
2022-10-31T00:29:04.610Z,56.10
2022-10-31T00:31:33.075Z,56.46
2022-10-31T00:34:04.396Z,56.47
2022-10-31T00:36:31.997Z,56.29
2022-10-31T00:39:00.143Z,56.42
2022-10-31T00:41:27.640Z,56.24
2022-10-31T00:43:55.067Z,56.24
2022-10-31T00:46:22.872Z,56.19
2022-10-31T00:48:51.998Z,56.07
2022-10-31T00:51:19.596Z,56.55
2022-10-31T00:53:47.148Z,56.02
2022-10-31T00:56:14.753Z,55.94
2022-10-31T00:58:43.582Z,56.10
2022-10-31T01:01:11.156Z,56.05
2022-10-31T01:03:39.828Z,56.22
2022-10-31T01:06:13.847Z,56.20
2022-10-31T01:08:41.863Z,56.05
2022-10-31T01:11:24.453Z,55.38
2022-10-31T01:13:54.718Z,55.25
2022-10-31T01:16:24.663Z,55.66
2022-10-31T01:18:53.248Z,55.71
2022-10-31T01:21:26.524Z,55.61
2022-10-31T01:23:55.464Z,55.92
2022-10-31T01:26:29.042Z,55.89
2022-10-31T01:29:01.932Z,55.86
2022-10-31T01:31:32.560Z,56.48
2022-10-31T01:34:00.732Z,55.95
2022-10-31T01:36:31.808Z,56.14
2022-10-31T01:39:02.976Z,56.70
2022-10-31T01:41:35.098Z,56.88
2022-10-31T01:44:25.259Z,57.33
2022-10-31T01:46:55.608Z,57.74
2022-10-31T01:49:30.135Z,57.85
2022-10-31T01:52:23.282Z,58.82
2022-10-31T01:54:59.991Z,58.84
2022-10-31T01:57:28.665Z,58.95
2022-10-31T02:00:00.604Z,59.55
2022-10-31T02:02:31.362Z,59.26
2022-10-31T02:05:02.911Z,60.33
2022-10-31T02:07:55.968Z,61.03
2022-10-31T02:10:28.817Z,60.86
2022-10-31T02:12:59.737Z,61.59
2022-10-31T02:15:27.866Z,61.32
2022-10-31T02:17:55.403Z,61.90
2022-10-31T02:20:25.654Z,61.95
2022-10-31T02:23:20.614Z,63.96
2022-10-31T02:26:16.507Z,63.95
2022-10-31T02:29:13.119Z,64.68
2022-10-31T02:31:46.960Z,63.55
2022-10-31T02:34:23.779Z,64.99
2022-10-31T02:37:33.804Z,65.03
2022-10-31T02:40:19.896Z,65.83
2022-10-31T02:43:43.863Z,66.27
2022-10-31T02:46:29.787Z,66.14
2022-10-31T02:49:02.934Z,66.56
2022-10-31T02:51:30.698Z,66.31
2022-10-31T02:53:58.107Z,66.40
2022-10-31T02:56:25.682Z,67.06
2022-10-31T02:59:05.321Z,68.56
2022-10-31T03:01:50.756Z,69.02
2022-10-31T03:04:35.922Z,68.86
2022-10-31T03:07:21.806Z,68.78
2022-10-31T03:10:10.735Z,68.65
2022-10-31T03:12:55.697Z,68.71
2022-10-31T03:15:37.093Z,69.08
2022-10-31T03:18:08.325Z,68.47
2022-10-31T03:20:47.319Z,68.73
2022-10-31T03:23:20.947Z,68.96
2022-10-31T03:25:54.309Z,68.30
2022-10-31T03:28:45.458Z,68.49
2022-10-31T03:31:17.981Z,68.02
2022-10-31T03:33:47.065Z,67.93
2022-10-31T03:36:16.847Z,67.80
2022-10-31T03:38:47.986Z,67.79
2022-10-31T03:41:24.958Z,67.82
2022-10-31T03:44:15.308Z,68.36
2022-10-31T03:46:44.758Z,67.62
2022-10-31T03:49:13.268Z,67.77
2022-10-31T03:51:47.755Z,67.56
2022-10-31T03:54:26.673Z,67.90
2022-10-31T03:57:02.874Z,68.36
2022-10-31T03:59:36.491Z,67.63
2022-10-31T04:02:09.123Z,67.81
2022-10-31T04:04:38.277Z,67.82
2022-10-31T04:07:09.358Z,67.79
2022-10-31T04:09:41.995Z,67.90
2022-10-31T04:12:12.214Z,67.86
2022-10-31T04:14:59.000Z,68.19
2022-10-31T04:17:31.137Z,68.15
2022-10-31T04:20:01.462Z,67.72
2022-10-31T04:22:31.239Z,68.00
2022-10-31T04:24:58.828Z,67.94
2022-10-31T04:27:27.671Z,67.95
2022-10-31T04:29:55.304Z,68.12
2022-10-31T04:32:22.834Z,68.64
2022-10-31T04:34:53.878Z,68.29
2022-10-31T04:37:21.407Z,68.50
2022-10-31T04:39:49.353Z,68.40
2022-10-31T04:42:37.304Z,68.26
2022-10-31T04:45:06.921Z,68.43
2022-10-31T04:47:36.446Z,68.41
2022-10-31T04:50:06.582Z,68.64
2022-10-31T04:52:41.285Z,68.47
2022-10-31T04:55:11.300Z,68.05
2022-10-31T04:58:05.414Z,68.35
2022-10-31T05:00:34.397Z,68.31
2022-10-31T05:03:09.639Z,68.16
2022-10-31T05:05:41.368Z,68.39
2022-10-31T05:08:08.920Z,68.39
2022-10-31T05:10:37.422Z,68.27
2022-10-31T05:13:06.380Z,67.81
2022-10-31T05:16:11.882Z,67.64
2022-10-31T05:18:45.600Z,68.01
2022-10-31T05:21:28.379Z,67.93
2022-10-31T05:24:00.787Z,67.50
2022-10-31T05:26:29.299Z,67.50
2022-10-31T05:28:57.403Z,67.63
2022-10-31T05:31:25.219Z,67.70
2022-10-31T05:33:54.575Z,67.88
2022-10-31T05:36:40.391Z,67.50
2022-10-31T05:39:16.943Z,67.63
2022-10-31T05:41:48.514Z,67.77
2022-10-31T05:44:26.781Z,67.62
2022-10-31T05:47:21.356Z,67.79
2022-10-31T05:49:57.979Z,67.91
2022-10-31T05:52:43.793Z,67.90
2022-10-31T05:55:34.717Z,67.76
2022-10-31T05:58:19.018Z,67.71
2022-10-31T06:00:53.971Z,68.07
2022-10-31T06:03:21.992Z,67.95
2022-10-31T06:05:59.501Z,68.32
2022-10-31T06:08:37.449Z,68.06
2022-10-31T06:11:14.259Z,67.93
2022-10-31T06:14:02.652Z,68.07
2022-10-31T06:16:40.925Z,67.97
2022-10-31T06:19:28.736Z,68.25
2022-10-31T06:21:56.392Z,68.03
2022-10-31T06:24:23.822Z,68.13
2022-10-31T06:26:53.876Z,68.05
2022-10-31T06:29:22.292Z,68.48
2022-10-31T06:32:04.111Z,68.07
2022-10-31T06:34:33.924Z,68.32
2022-10-31T06:37:01.482Z,68.56
2022-10-31T06:39:30.222Z,67.88
2022-10-31T06:41:57.984Z,67.70
2022-10-31T06:44:30.051Z,68.00
2022-10-31T06:47:00.814Z,67.61
2022-10-31T06:49:54.437Z,67.34
2022-10-31T06:52:24.526Z,67.39
2022-10-31T06:54:52.735Z,67.15
2022-10-31T06:57:21.432Z,67.54
2022-10-31T06:59:48.847Z,67.28
2022-10-31T07:02:33.144Z,66.87
2022-10-31T07:05:01.985Z,66.79
2022-10-31T07:07:30.600Z,66.14
2022-10-31T07:09:58.203Z,66.05
2022-10-31T07:12:43.779Z,65.90
2022-10-31T07:15:11.510Z,65.87
2022-10-31T07:17:38.911Z,65.72
2022-10-31T07:20:09.764Z,65.92
2022-10-31T07:22:38.634Z,65.84
2022-10-31T07:25:10.312Z,65.73
2022-10-31T07:28:01.488Z,65.18
2022-10-31T07:30:29.719Z,65.61
2022-10-31T07:32:57.997Z,65.16
2022-10-31T07:35:37.156Z,64.89
2022-10-31T07:38:10.562Z,65.02
2022-10-31T07:40:38.334Z,65.14
2022-10-31T07:43:10.193Z,65.35
2022-10-31T07:45:59.404Z,64.56
2022-10-31T07:48:47.759Z,64.62
2022-10-31T07:51:33.977Z,64.66
2022-10-31T07:54:31.569Z,64.57
2022-10-31T07:56:59.101Z,64.54
2022-10-31T07:59:33.811Z,64.61
2022-10-31T08:02:01.699Z,65.01
2022-10-31T08:04:49.802Z,65.09
2022-10-31T08:07:38.419Z,65.41
2022-10-31T08:10:08.448Z,65.02
2022-10-31T08:12:38.742Z,65.24
2022-10-31T08:15:09.793Z,65.13
2022-10-31T08:17:38.762Z,64.86
2022-10-31T08:20:07.176Z,64.06
2022-10-31T08:22:43.827Z,64.24
2022-10-31T08:25:12.484Z,63.75
2022-10-31T08:27:40.366Z,63.16
2022-10-31T08:30:13.105Z,62.89
2022-10-31T08:32:47.588Z,62.68
2022-10-31T08:35:38.452Z,62.70
2022-10-31T08:38:38.475Z,62.01
2022-10-31T08:41:09.638Z,61.82
2022-10-31T08:43:38.055Z,60.91
2022-10-31T08:46:06.274Z,60.56
2022-10-31T08:48:34.004Z,60.33
2022-10-31T08:51:03.264Z,60.39
2022-10-31T08:53:31.367Z,60.72
2022-10-31T08:56:23.433Z,60.35
2022-10-31T08:58:52.275Z,60.08
2022-10-31T09:01:25.607Z,60.02
2022-10-31T09:03:53.232Z,60.23
2022-10-31T09:06:21.317Z,59.83
2022-10-31T09:08:49.507Z,59.34
2022-10-31T09:11:17.741Z,59.00
2022-10-31T09:14:03.677Z,58.17
2022-10-31T09:16:40.175Z,57.72
2022-10-31T09:19:14.350Z,57.44
2022-10-31T09:21:46.321Z,56.84
2022-10-31T09:24:16.229Z,56.14
2022-10-31T09:26:43.942Z,55.67
2022-10-31T09:29:18.211Z,55.06
2022-10-31T09:31:49.222Z,54.49
2022-10-31T09:34:26.404Z,54.51
2022-10-31T09:37:14.020Z,54.15
2022-10-31T09:39:41.643Z,54.11
2022-10-31T09:42:39.375Z,52.78
2022-10-31T09:45:44.818Z,53.79
2022-10-31T09:48:53.582Z,53.58
2022-10-31T09:51:36.018Z,53.18
2022-10-31T09:54:23.617Z,53.52
2022-10-31T09:56:52.066Z,53.43
2022-10-31T09:59:34.649Z,52.84
2022-10-31T10:02:07.165Z,53.49
2022-10-31T10:04:46.167Z,53.95
2022-10-31T10:07:47.462Z,54.17
2022-10-31T10:10:54.754Z,54.74
2022-10-31T10:13:52.593Z,55.02
2022-10-31T10:16:25.689Z,56.02
2022-10-31T10:19:24.230Z,56.76
2022-10-31T10:22:19.349Z,55.25
2022-10-31T10:24:52.770Z,53.82
2022-10-31T10:27:38.326Z,53.49
2022-10-31T10:30:19.516Z,54.20
2022-10-31T10:32:57.703Z,54.63
2022-10-31T10:35:35.345Z,54.63
2022-10-31T10:38:17.196Z,53.91
2022-10-31T10:40:45.571Z,53.88
2022-10-31T10:43:28.444Z,53.16
2022-10-31T10:46:23.322Z,54.09
2022-10-31T10:48:53.430Z,54.57
2022-10-31T10:52:20.117Z,54.71
2022-10-31T10:55:09.276Z,55.58
2022-10-31T10:57:51.230Z,56.02
2022-10-31T11:00:47.959Z,56.25
2022-10-31T11:03:17.132Z,56.04
2022-10-31T11:05:56.173Z,55.44
2022-10-31T11:08:28.685Z,55.43
2022-10-31T11:11:02.039Z,55.98
2022-10-31T11:13:31.155Z,56.42
2022-10-31T11:16:07.546Z,57.00
2022-10-31T11:18:44.195Z,57.67
2022-10-31T11:21:28.398Z,57.33
2022-10-31T11:24:13.562Z,57.55
2022-10-31T11:26:42.976Z,57.99
2022-10-31T11:29:16.721Z,58.04
2022-10-31T11:31:46.989Z,58.10
2022-10-31T11:34:26.892Z,58.05
2022-10-31T11:36:58.283Z,58.31
2022-10-31T11:39:25.883Z,58.33
2022-10-31T11:41:55.367Z,58.20
2022-10-31T11:44:27.414Z,58.79
2022-10-31T11:47:04.374Z,58.74
2022-10-31T11:49:38.545Z,58.51
2022-10-31T11:52:16.325Z,58.18
2022-10-31T11:54:51.409Z,58.59
2022-10-31T11:57:28.401Z,58.83
2022-10-31T11:59:58.921Z,58.75
2022-10-31T12:02:27.107Z,58.80
2022-10-31T12:05:22.529Z,59.30
2022-10-31T12:07:50.822Z,58.84
2022-10-31T12:10:22.822Z,59.56
2022-10-31T12:13:14.379Z,60.24
2022-10-31T12:15:55.001Z,59.74
2022-10-31T12:18:46.929Z,60.35
2022-10-31T12:21:28.357Z,60.57
2022-10-31T12:24:23.036Z,60.51
2022-10-31T12:27:19.717Z,60.91
2022-10-31T12:30:13.190Z,60.68
2022-10-31T12:32:49.548Z,61.07
2022-10-31T12:35:29.000Z,61.62
2022-10-31T12:37:59.495Z,61.65
2022-10-31T12:40:36.209Z,62.33
2022-10-31T12:43:36.158Z,63.22
2022-10-31T12:46:09.427Z,62.50
2022-10-31T12:49:01.566Z,63.47
2022-10-31T12:52:06.474Z,64.43
2022-10-31T12:55:31.061Z,64.57
2022-10-31T12:58:05.099Z,63.88
2022-10-31T13:00:37.254Z,63.35
2022-10-31T13:03:23.184Z,64.26
2022-10-31T13:05:59.231Z,64.45
2022-10-31T13:08:47.225Z,64.77
2022-10-31T13:11:26.447Z,64.62
2022-10-31T13:14:06.712Z,64.23
2022-10-31T13:16:44.824Z,63.76
2022-10-31T13:19:30.673Z,63.89
2022-10-31T13:22:09.890Z,64.20
2022-10-31T13:25:04.747Z,64.03
2022-10-31T13:27:57.964Z,64.14
2022-10-31T13:30:29.865Z,63.77
2022-10-31T13:33:05.817Z,63.75
2022-10-31T13:35:52.573Z,63.86
2022-10-31T13:38:25.844Z,63.35
2022-10-31T13:41:00.766Z,63.24
2022-10-31T13:44:00.688Z,63.65
2022-10-31T13:46:34.018Z,63.83
2022-10-31T13:49:04.625Z,63.11
2022-10-31T13:51:36.177Z,62.95
2022-10-31T13:54:23.601Z,63.46
2022-10-31T13:56:53.584Z,63.36
2022-10-31T13:59:26.061Z,63.23
2022-10-31T14:01:58.807Z,63.37
2022-10-31T14:04:45.677Z,63.15
2022-10-31T14:07:16.311Z,63.13
2022-10-31T14:09:52.868Z,63.71
2022-10-31T14:12:42.493Z,63.66
2022-10-31T14:15:18.592Z,63.58
2022-10-31T14:17:51.881Z,63.14
2022-10-31T14:20:19.340Z,63.26
2022-10-31T14:22:46.922Z,63.22
2022-10-31T14:25:34.569Z,63.50
2022-10-31T14:28:18.608Z,63.27
2022-10-31T14:30:57.772Z,64.04
2022-10-31T14:33:30.845Z,63.39
2022-10-31T14:36:20.090Z,63.57
2022-10-31T14:38:59.481Z,63.71
2022-10-31T14:41:34.338Z,63.48
2022-10-31T14:44:13.825Z,63.86
2022-10-31T14:47:35.078Z,63.86
2022-10-31T14:50:20.668Z,63.38
2022-10-31T14:52:52.649Z,63.17
2022-10-31T14:55:21.954Z,63.02
2022-10-31T14:58:08.567Z,62.79
2022-10-31T15:00:37.294Z,63.11
2022-10-31T15:03:17.097Z,63.29
2022-10-31T15:05:55.301Z,63.18
2022-10-31T15:08:32.208Z,63.01
2022-10-31T15:11:03.440Z,63.23
2022-10-31T15:13:30.995Z,62.95
2022-10-31T15:15:58.673Z,63.26
2022-10-31T15:18:28.606Z,63.46
2022-10-31T15:20:57.845Z,63.18
2022-10-31T15:23:30.253Z,63.38
2022-10-31T15:26:06.086Z,62.70
2022-10-31T15:28:33.732Z,62.96
2022-10-31T15:31:03.253Z,62.58
2022-10-31T15:33:38.204Z,62.79
2022-10-31T15:36:07.251Z,62.74
2022-10-31T15:38:35.008Z,62.89
2022-10-31T15:41:21.101Z,63.08
2022-10-31T15:43:49.287Z,62.54
2022-10-31T15:46:16.793Z,62.99
2022-10-31T15:48:49.390Z,62.64
2022-10-31T15:51:17.126Z,62.81
2022-10-31T15:53:52.937Z,62.15
2022-10-31T15:56:27.434Z,62.46
2022-10-31T15:58:56.557Z,62.71
2022-10-31T16:01:29.769Z,62.80
2022-10-31T16:04:22.522Z,62.94
2022-10-31T16:07:24.065Z,62.87
2022-10-31T16:09:55.971Z,62.84
2022-10-31T16:12:25.689Z,62.52
2022-10-31T16:14:55.456Z,62.84
2022-10-31T16:17:25.654Z,62.78
2022-10-31T16:20:04.177Z,62.80
2022-10-31T16:22:35.769Z,62.66
2022-10-31T16:25:15.315Z,62.64
2022-10-31T16:27:54.277Z,61.89
2022-10-31T16:30:42.827Z,62.32
2022-10-31T16:33:31.947Z,61.95
2022-10-31T16:36:15.780Z,61.85
2022-10-31T16:38:48.024Z,61.74
2022-10-31T16:41:15.549Z,61.79
2022-10-31T16:43:43.045Z,61.64
2022-10-31T16:46:19.841Z,61.58
2022-10-31T16:48:47.457Z,62.00
2022-10-31T16:51:14.961Z,61.98
2022-10-31T16:53:46.570Z,61.48
2022-10-31T16:56:22.778Z,61.87
2022-10-31T16:58:50.737Z,61.66
2022-10-31T17:01:18.368Z,61.81
2022-10-31T17:03:46.012Z,61.63
2022-10-31T17:06:14.795Z,61.79
2022-10-31T17:08:42.505Z,61.70
2022-10-31T17:11:17.582Z,62.04
2022-10-31T17:13:45.307Z,62.32
2022-10-31T17:16:15.340Z,62.37
2022-10-31T17:18:43.942Z,61.88
2022-10-31T17:21:18.605Z,62.62
2022-10-31T17:23:46.191Z,62.34
2022-10-31T17:26:13.678Z,62.53
2022-10-31T17:28:41.629Z,62.45
2022-10-31T17:31:24.655Z,62.81
2022-10-31T17:34:00.105Z,62.40
2022-10-31T17:36:32.212Z,62.44
2022-10-31T17:39:00.140Z,62.37
2022-10-31T17:41:27.873Z,62.16
2022-10-31T17:43:59.760Z,62.56
2022-10-31T17:46:28.675Z,62.26
2022-10-31T17:48:58.202Z,62.29
2022-10-31T17:51:25.735Z,62.30
2022-10-31T17:53:53.407Z,62.30
2022-10-31T17:56:21.165Z,62.69
2022-10-31T17:58:48.918Z,62.29
2022-10-31T18:01:18.179Z,61.93
2022-10-31T18:03:45.901Z,62.62
2022-10-31T18:06:16.793Z,62.36
2022-10-31T18:08:47.397Z,62.33
2022-10-31T18:11:20.825Z,62.60
2022-10-31T18:13:48.497Z,62.19
2022-10-31T18:16:19.297Z,62.18
2022-10-31T18:18:52.267Z,62.53
2022-10-31T18:21:20.615Z,62.18
2022-10-31T18:23:48.357Z,61.87
2022-10-31T18:26:16.011Z,62.18
2022-10-31T18:28:44.443Z,62.14
2022-10-31T18:31:12.104Z,61.83
2022-10-31T18:33:39.610Z,62.08
2022-10-31T18:36:07.771Z,62.21
2022-10-31T18:38:39.546Z,62.23
2022-10-31T18:41:08.786Z,62.18
2022-10-31T18:43:36.472Z,62.44
2022-10-31T18:46:06.404Z,62.36
2022-10-31T18:48:34.093Z,62.04
2022-10-31T18:51:09.224Z,62.03
2022-10-31T18:54:13.979Z,62.52
2022-10-31T18:56:56.847Z,62.45
2022-10-31T19:13:09.986Z,62.29
2022-10-31T19:17:26.619Z,62.37
2022-10-31T19:23:40.827Z,62.27
2022-10-31T19:27:04.265Z,62.53
2022-10-31T19:30:15.254Z,62.36
2022-10-31T19:32:42.865Z,62.48
2022-10-31T19:35:37.922Z,62.11
2022-10-31T19:38:08.487Z,62.10
2022-10-31T19:40:37.155Z,62.40
2022-10-31T19:43:04.901Z,62.49
2022-10-31T19:45:32.449Z,62.17
2022-10-31T19:48:00.301Z,61.98
2022-10-31T19:50:29.103Z,62.33
2022-10-31T19:52:57.114Z,61.97
2022-10-31T19:55:24.609Z,62.03
2022-10-31T19:58:07.361Z,61.76
2022-10-31T20:00:35.136Z,62.03
2022-10-31T20:03:02.911Z,61.80
2022-10-31T20:18:30.531Z,61.10
2022-10-31T20:30:26.474Z,61.35
2022-10-31T20:33:39.488Z,61.34
2022-10-31T20:36:19.714Z,61.61
2022-10-31T20:39:03.327Z,61.70
2022-10-31T20:41:42.813Z,61.80
2022-10-31T20:45:24.946Z,61.55
2022-10-31T21:05:13.289Z,61.58
2022-10-31T21:12:05.474Z,62.07
2022-10-31T21:18:37.718Z,62.21
2022-10-31T21:21:09.498Z,62.11
2022-10-31T21:23:37.465Z,62.61
2022-10-31T21:26:09.669Z,62.09
2022-10-31T21:28:37.232Z,62.11
2022-10-31T21:31:13.201Z,62.36
2022-10-31T21:33:41.332Z,61.78
2022-10-31T21:36:09.637Z,61.81
2022-10-31T21:38:37.602Z,62.14
2022-10-31T21:41:11.009Z,62.12
2022-10-31T21:43:40.524Z,62.18
2022-10-31T21:46:09.503Z,62.20
2022-10-31T21:48:44.528Z,62.04
2022-10-31T21:51:17.647Z,61.96
2022-10-31T21:54:04.251Z,61.97
2022-10-31T21:56:33.400Z,62.60
2022-10-31T21:59:01.742Z,62.25
2022-10-31T22:01:29.774Z,62.34
2022-10-31T22:03:58.465Z,62.47
2022-10-31T22:06:27.475Z,62.76
2022-10-31T22:08:55.198Z,62.83
2022-10-31T22:11:22.997Z,62.69
2022-10-31T22:13:50.769Z,62.77
2022-10-31T22:16:20.841Z,62.81
2022-10-31T22:18:53.126Z,62.62
2022-10-31T22:21:26.261Z,62.34
2022-10-31T22:24:03.300Z,62.17
2022-10-31T22:26:33.459Z,62.11
2022-10-31T22:29:04.108Z,61.93
2022-10-31T22:31:33.397Z,61.89
2022-10-31T22:34:01.166Z,61.89
2022-10-31T22:36:30.312Z,62.09
2022-10-31T22:38:58.579Z,61.83
2022-10-31T22:41:31.506Z,61.22
2022-10-31T22:43:59.610Z,61.49
2022-10-31T22:46:29.842Z,61.51
2022-10-31T22:48:59.984Z,61.66
2022-10-31T22:51:33.220Z,61.02
2022-10-31T22:54:01.310Z,61.00
2022-10-31T22:56:33.822Z,61.07
2022-10-31T22:59:02.415Z,61.53
2022-10-31T23:01:32.845Z,61.43
2022-10-31T23:04:01.366Z,61.26
2022-10-31T23:06:30.706Z,61.25
2022-10-31T23:09:00.556Z,61.17
2022-10-31T23:11:33.751Z,60.92
2022-10-31T23:14:09.544Z,60.84
2022-10-31T23:16:38.539Z,61.24
2022-10-31T23:19:08.156Z,61.12
2022-10-31T23:21:55.120Z,60.75
2022-10-31T23:24:27.490Z,60.91
2022-10-31T23:27:12.164Z,60.63
2022-10-31T23:29:49.413Z,60.87
2022-10-31T23:32:18.798Z,61.30
2022-10-31T23:34:48.163Z,61.06
2022-10-31T23:37:17.427Z,61.11
2022-10-31T23:39:45.382Z,61.50
2022-10-31T23:42:13.997Z,61.16
2022-10-31T23:44:42.014Z,61.28
2022-10-31T23:47:09.731Z,61.18
2022-10-31T23:49:37.310Z,61.35
2022-10-31T23:52:05.724Z,60.89
2022-10-31T23:54:33.503Z,60.77
2022-10-31T23:57:02.116Z,60.72
2022-10-31T23:59:30.433Z,60.82
